Time;durP1;ratioP1;P1;durP2;ratioP2;P2;SDS_P1;SDS_P2;PMS_P1;PMS_P2;Temp;Humidity;BMP_temperature;BMP_pressure;BME280_temperature;BME280_humidity;BME280_pressure;Samples;Min_cycle;Max_cycle;Signal;HPM_P1;HPM_P2
2023/10/11 00:00:39;;;;;;;20.33;14.82;;;15.10;99.90;;;;;;4792711;29;20049;-80
2023/10/11 00:05:50;;;;;;;22.23;15.20;;;15.10;99.90;;;;;;4808624;29;20528;-80
2023/10/11 00:08:17;;;;;;;26.20;16.05;;;15.10;99.90;;;;;;4808189;29;20066;-80
2023/10/11 00:10:54;;;;;;;23.75;16.48;;;15.10;99.90;;;;;;4808287;29;20112;-81
2023/10/11 00:13:33;;;;;;;21.67;16.25;;;15.10;99.90;;;;;;4808018;29;20077;-80
2023/10/11 00:16:08;;;;;;;22.15;16.63;;;15.10;99.90;;;;;;4792793;29;20046;-80
2023/10/11 00:18:41;;;;;;;22.52;15.82;;;15.10;99.90;;;;;;4793153;29;20047;-79
2023/10/11 00:21:11;;;;;;;24.13;17.08;;;15.10;99.90;;;;;;4792809;29;20050;-80
2023/10/11 00:23:41;;;;;;;23.63;17.83;;;15.10;99.90;;;;;;4816804;29;20537;-80
2023/10/11 00:26:07;;;;;;;27.52;18.73;;;15.20;99.90;;;;;;4792393;29;20043;-80
2023/10/11 00:28:33;;;;;;;25.35;19.45;;;15.20;99.90;;;;;;4808274;29;20042;-80
2023/10/11 00:31:01;;;;;;;29.50;19.30;;;15.20;99.90;;;;;;4807723;29;20042;-79
2023/10/11 00:33:28;;;;;;;25.60;19.65;;;15.20;99.90;;;;;;4791996;29;20046;-80
2023/10/11 00:35:55;;;;;;;31.20;21.98;;;15.20;99.90;;;;;;4792553;29;20046;-80
2023/10/11 00:38:27;;;;;;;26.08;20.25;;;15.20;99.90;;;;;;4826175;29;20528;-80
2023/10/11 00:41:07;;;;;;;27.02;21.00;;;15.20;99.90;;;;;;4826059;29;20054;-80
2023/10/11 00:43:38;;;;;;;24.17;21.00;;;15.20;99.90;;;;;;4820799;29;20042;-80
2023/10/11 00:46:13;;;;;;;33.20;22.33;;;15.30;99.90;;;;;;4794407;29;20045;-80
2023/10/11 00:51:31;;;;;;;27.17;23.27;;;15.30;99.90;;;;;;4823788;29;20057;-81
2023/10/11 00:53:58;;;;;;;30.98;23.40;;;15.30;99.90;;;;;;4817926;29;20042;-80
2023/10/11 00:56:31;;;;;;;29.95;22.40;;;15.30;99.90;;;;;;4807225;29;20042;-80
2023/10/11 00:59:03;;;;;;;31.10;24.45;;;15.30;99.90;;;;;;4807898;29;20054;-80
2023/10/11 01:01:29;;;;;;;29.23;24.13;;;15.20;99.90;;;;;;4807536;29;20521;-80
2023/10/11 01:03:55;;;;;;;38.58;25.55;;;15.30;99.90;;;;;;4806594;29;20046;-81
2023/10/11 01:06:25;;;;;;;32.75;24.40;;;15.20;99.90;;;;;;4807246;29;20094;-79
2023/10/11 01:08:52;;;;;;;33.28;26.88;;;15.30;99.90;;;;;;4807245;29;20050;-80
2023/10/11 01:11:18;;;;;;;40.17;27.05;;;15.30;99.90;;;;;;4806680;29;20502;-80
2023/10/11 01:13:50;;;;;;;38.97;27.30;;;15.20;99.90;;;;;;4791363;29;20522;-80
2023/10/11 01:16:24;;;;;;;33.47;26.15;;;15.30;99.90;;;;;;4812579;29;20046;-80
2023/10/11 01:18:50;;;;;;;38.90;26.67;;;15.20;99.90;;;;;;4789439;29;20050;-80
2023/10/11 01:21:16;;;;;;;34.38;26.15;;;15.30;99.90;;;;;;4806446;29;20403;-80
2023/10/11 01:23:41;;;;;;;35.17;27.42;;;15.30;99.90;;;;;;4806825;29;20053;-80
2023/10/11 01:26:08;;;;;;;38.70;28.77;;;15.30;99.90;;;;;;4806404;29;20043;-80
2023/10/11 01:28:40;;;;;;;38.35;28.27;;;15.30;99.90;;;;;;4799476;29;20048;-80
2023/10/11 01:31:10;;;;;;;40.17;27.15;;;15.30;99.90;;;;;;4792317;29;20045;-80
2023/10/11 01:33:43;;;;;;;37.25;26.42;;;15.30;99.90;;;;;;4806541;29;20053;-80
2023/10/11 01:36:20;;;;;;;36.47;27.60;;;15.30;99.90;;;;;;4806922;29;20081;-79
2023/10/11 01:38:49;;;;;;;34.70;27.50;;;15.30;99.90;;;;;;4807393;29;20525;-80
2023/10/11 01:41:18;;;;;;;35.85;27.50;;;15.30;99.90;;;;;;4792110;29;20259;-80
2023/10/11 01:43:46;;;;;;;42.15;29.10;;;15.30;99.90;;;;;;4811770;29;20046;-80
2023/10/11 01:46:13;;;;;;;46.95;30.30;;;15.30;99.90;;;;;;4795663;29;20062;-80
2023/10/11 01:48:39;;;;;;;40.20;28.98;;;15.30;99.90;;;;;;4822372;29;20524;-80
2023/10/11 01:51:09;;;;;;;37.35;27.55;;;15.30;99.90;;;;;;4807362;29;20131;-80
2023/10/11 01:53:35;;;;;;;34.60;27.60;;;15.30;99.90;;;;;;4802887;29;20417;-80
2023/10/11 01:56:03;;;;;;;37.97;28.77;;;15.30;99.90;;;;;;4804700;29;20047;-81
2023/10/11 01:58:28;;;;;;;33.00;27.73;;;15.20;99.90;;;;;;4811219;29;20133;-80
2023/10/11 02:00:55;;;;;;;36.38;30.00;;;15.20;99.90;;;;;;4813020;29;20137;-80
2023/10/11 02:03:24;;;;;;;40.17;29.10;;;15.20;99.90;;;;;;4790308;29;21678;-79
2023/10/11 02:05:50;;;;;;;37.08;28.60;;;15.30;99.90;;;;;;4810211;29;20080;-79
2023/10/11 02:08:17;;;;;;;32.60;28.08;;;15.20;99.90;;;;;;4809522;29;20091;-80
2023/10/11 02:10:44;;;;;;;36.50;28.67;;;15.20;99.90;;;;;;4791835;29;20134;-80
2023/10/11 02:13:10;;;;;;;36.30;28.23;;;15.20;99.90;;;;;;4806289;29;20099;-80
2023/10/11 02:15:37;;;;;;;37.78;28.77;;;15.20;99.90;;;;;;4806360;29;20115;-81
2023/10/11 02:18:10;;;;;;;40.92;30.67;;;15.10;99.90;;;;;;4820324;29;20106;-81
2023/10/11 02:20:45;;;;;;;36.00;28.48;;;15.10;99.90;;;;;;4813108;29;20453;-80
2023/10/11 02:23:14;;;;;;;42.88;29.60;;;15.10;99.90;;;;;;4812828;29;20414;-80
2023/10/11 02:25:43;;;;;;;38.40;30.00;;;15.00;99.90;;;;;;4809830;29;20049;-80
2023/10/11 02:28:09;;;;;;;34.15;27.70;;;15.00;99.90;;;;;;4808815;29;20066;-81
2023/10/11 02:30:38;;;;;;;37.00;27.75;;;15.00;99.90;;;;;;4797572;29;20074;-81
2023/10/11 02:33:07;;;;;;;38.28;28.48;;;14.90;99.90;;;;;;4826908;29;20084;-79
2023/10/11 02:35:44;;;;;;;32.10;25.13;;;14.90;99.90;;;;;;4808006;29;20438;-81
2023/10/11 02:38:10;;;;;;;34.47;27.13;;;14.90;99.90;;;;;;4791936;29;20054;-80
2023/10/11 02:40:38;;;;;;;35.13;27.52;;;14.90;99.90;;;;;;4793105;29;20057;-80
2023/10/11 02:43:04;;;;;;;32.90;26.77;;;14.90;99.90;;;;;;4793789;29;20054;-80
2023/10/11 02:45:33;;;;;;;33.53;27.33;;;14.90;99.90;;;;;;4803798;29;20042;-80
2023/10/11 02:47:59;;;;;;;38.60;27.83;;;14.80;99.90;;;;;;4827943;29;20057;-80
2023/10/11 02:50:25;;;;;;;36.45;26.33;;;14.90;99.90;;;;;;4827812;29;20454;-81
2023/10/11 02:52:59;;;;;;;41.65;28.17;;;14.90;99.90;;;;;;4827563;29;20545;-81
2023/10/11 02:55:26;;;;;;;32.40;26.02;;;14.80;99.90;;;;;;4792782;29;20042;-80
2023/10/11 02:58:06;;;;;;;34.13;27.13;;;14.90;99.90;;;;;;4810844;29;20502;-81
2023/10/11 03:00:33;;;;;;;35.88;27.40;;;14.80;99.90;;;;;;4826213;29;20057;-81
2023/10/11 03:03:00;;;;;;;36.10;27.85;;;14.80;99.90;;;;;;4797199;29;20121;-81
2023/10/11 03:05:29;;;;;;;35.22;28.48;;;14.80;99.90;;;;;;4800739;29;20047;-80
2023/10/11 03:07:55;;;;;;;40.38;27.55;;;14.80;99.90;;;;;;4806958;29;20039;-81
2023/10/11 03:10:22;;;;;;;42.17;27.25;;;14.80;99.90;;;;;;4821823;29;20094;-81
2023/10/11 03:12:51;;;;;;;38.50;27.88;;;14.80;99.90;;;;;;4809193;29;20046;-80
2023/10/11 03:15:19;;;;;;;31.42;25.55;;;14.80;99.90;;;;;;4792303;29;20395;-81
2023/10/11 03:17:48;;;;;;;34.75;27.00;;;14.70;99.90;;;;;;4791494;29;20046;-81
2023/10/11 03:20:25;;;;;;;38.17;25.85;;;14.70;99.90;;;;;;4791041;29;20046;-81
2023/10/11 03:22:51;;;;;;;40.35;29.55;;;14.70;99.90;;;;;;4807104;29;20125;-80
2023/10/11 03:25:19;;;;;;;38.90;27.13;;;14.60;99.90;;;;;;4812874;29;20125;-81
2023/10/11 03:27:49;;;;;;;39.15;28.58;;;14.70;99.90;;;;;;4808738;29;20419;-81
2023/10/11 03:30:15;;;;;;;32.75;27.05;;;14.70;99.90;;;;;;4793989;29;20048;-81
2023/10/11 03:32:44;;;;;;;37.65;27.58;;;14.60;99.90;;;;;;4808953;29;20077;-81
2023/10/11 03:35:10;;;;;;;37.28;27.80;;;14.60;99.90;;;;;;4807489;29;20038;-81
2023/10/11 03:37:37;;;;;;;37.80;26.50;;;14.60;99.90;;;;;;4791160;29;20486;-80
2023/10/11 03:40:27;;;;;;;34.05;27.05;;;14.60;99.90;;;;;;4775853;29;20491;-80
2023/10/11 03:42:59;;;;;;;35.60;26.92;;;14.60;99.90;;;;;;4790736;29;20082;-81
2023/10/11 03:45:27;;;;;;;;;;;14.60;99.90;;;;;;4794211;29;20529;-81
2023/10/11 03:47:58;;;;;;;33.58;26.13;;;14.60;99.90;;;;;;4811467;29;19924;-80
2023/10/11 03:50:34;;;;;;;36.42;25.10;;;14.70;99.90;;;;;;4817801;29;20089;-81
2023/10/11 03:53:10;;;;;;;37.10;27.83;;;14.70;99.90;;;;;;4813940;29;20046;-81
2023/10/11 03:55:45;;;;;;;33.90;24.73;;;14.70;99.90;;;;;;4807743;29;20051;-81
2023/10/11 03:58:22;;;;;;;32.92;25.88;;;14.70;99.90;;;;;;4808700;29;20034;-80
2023/10/11 04:00:48;;;;;;;31.88;25.73;;;14.80;99.90;;;;;;4808628;29;20038;-81
2023/10/11 04:03:17;;;;;;;32.70;25.05;;;14.80;99.90;;;;;;4796081;29;20042;-80
2023/10/11 04:05:47;;;;;;;33.55;25.50;;;14.80;99.90;;;;;;4786324;29;20410;-80
2023/10/11 04:08:19;;;;;;;33.55;25.52;;;14.90;99.90;;;;;;4823674;29;20502;-81
2023/10/11 04:10:49;;;;;;;28.35;25.05;;;14.90;99.90;;;;;;4823766;29;20521;-80
2023/10/11 04:13:16;;;;;;;32.78;26.13;;;14.90;99.90;;;;;;4801666;29;20041;-80
2023/10/11 04:15:42;;;;;;;35.88;24.80;;;15.00;99.90;;;;;;4809950;29;20050;-81
2023/10/11 04:18:27;;;;;;;39.65;27.35;;;14.90;99.90;;;;;;4800630;29;20042;-80
2023/10/11 04:23:35;;;;;;;32.72;24.33;;;14.90;99.90;;;;;;4807526;29;20106;-80
2023/10/11 04:26:07;;;;;;;39.55;27.50;;;15.00;99.90;;;;;;4815278;29;20065;-81
2023/10/11 04:28:33;;;;;;;35.08;25.75;;;15.00;99.90;;;;;;4809724;29;20386;-81
2023/10/11 04:31:28;;;;;;;35.05;26.05;;;15.00;99.90;;;;;;4812707;29;20046;-81
2023/10/11 04:33:54;;;;;;;35.85;26.25;;;15.00;99.90;;;;;;4807227;29;20055;-80
2023/10/11 04:36:20;;;;;;;35.58;28.10;;;15.00;99.90;;;;;;4791818;29;20042;-80
2023/10/11 04:38:49;;;;;;;35.40;27.50;;;15.00;99.90;;;;;;4792261;29;20137;-80
2023/10/11 04:41:19;;;;;;;36.88;27.15;;;15.00;99.90;;;;;;4792596;29;20046;-81
2023/10/11 04:43:54;;;;;;;36.05;28.02;;;15.00;99.90;;;;;;4790596;29;20540;-80
2023/10/11 04:46:30;;;;;;;43.95;28.70;;;15.00;99.90;;;;;;4799799;29;20103;-81
2023/10/11 04:49:16;;;;;;;40.90;29.58;;;15.00;99.90;;;;;;4792887;29;20038;-81
2023/10/11 04:51:45;;;;;;;36.85;28.48;;;15.00;99.90;;;;;;4802001;29;20073;-81
2023/10/11 04:54:13;;;;;;;38.55;28.13;;;15.00;99.90;;;;;;4791155;29;20042;-81
2023/10/11 04:59:16;;;;;;;37.85;29.58;;;15.00;99.90;;;;;;4807670;29;20533;-80
2023/10/11 05:04:15;;;;;;;42.67;29.80;;;15.00;99.90;;;;;;4806256;29;20106;-80
2023/10/11 05:06:44;;;;;;;37.63;29.38;;;15.00;99.90;;;;;;4792109;29;20050;-81
2023/10/11 05:11:46;;;;;;;39.63;29.73;;;15.00;99.90;;;;;;4806209;29;20050;-81
2023/10/11 05:14:29;;;;;;;41.35;30.52;;;15.00;99.90;;;;;;4801406;29;20047;-80
2023/10/11 05:16:59;;;;;;;42.42;31.30;;;14.90;99.90;;;;;;4807031;29;20046;-80
2023/10/11 05:19:34;;;;;;;39.97;30.35;;;14.90;99.90;;;;;;4807496;29;20046;-81
2023/10/11 05:22:03;;;;;;;39.65;31.13;;;15.00;99.90;;;;;;4807217;29;20050;-81
2023/10/11 05:32:32;;;;;;;42.10;31.40;;;14.90;99.90;;;;;;4807113;29;20046;-80
2023/10/11 05:35:19;;;;;;;47.05;34.40;;;14.80;99.90;;;;;;4806941;29;20131;-80
2023/10/11 05:51:28;;;;;;;42.95;33.95;;;14.70;99.90;;;;;;4805913;29;20155;-81
2023/10/11 05:53:54;;;;;;;48.58;35.90;;;14.70;99.90;;;;;;4804308;29;20082;-81
2023/10/11 05:56:23;;;;;;;45.83;36.92;;;14.60;99.90;;;;;;4810330;29;20506;-80
2023/10/11 05:58:50;;;;;;;50.40;39.00;;;14.70;99.90;;;;;;4810527;29;20053;-80
2023/10/11 06:01:26;;;;;;;52.53;37.75;;;14.60;99.90;;;;;;4796837;29;20074;-80
2023/10/11 06:03:55;;;;;;;53.55;37.65;;;14.60;99.90;;;;;;4792567;29;20038;-80
2023/10/11 06:06:32;;;;;;;51.38;39.25;;;14.60;99.90;;;;;;4810195;29;20104;-80
2023/10/11 06:08:59;;;;;;;51.00;38.85;;;14.60;99.90;;;;;;4815638;29;20046;-80
2023/10/11 06:11:29;;;;;;;55.05;39.45;;;14.60;99.90;;;;;;4794191;29;20050;-79
2023/10/11 06:14:04;;;;;;;51.42;40.08;;;14.60;99.90;;;;;;4802097;29;20052;-80
2023/10/11 06:16:37;;;;;;;50.30;38.25;;;14.70;99.90;;;;;;4813241;29;20490;-80
2023/10/11 06:21:55;;;;;;;48.10;38.22;;;14.70;99.90;;;;;;4978211;23;20117;-79
2023/10/11 06:24:22;;;;;;;;;;;14.70;99.90;;;;;;4836533;29;20052;-79
2023/10/11 06:29:17;;;;;;;48.78;37.38;;;14.70;99.90;;;;;;4835239;29;20139;-80
2023/10/11 06:31:45;;;;;;;54.47;37.78;;;14.70;99.90;;;;;;4817271;29;20050;-79
2023/10/11 06:36:49;;;;;;;55.72;37.15;;;14.80;99.90;;;;;;4817357;29;20082;-80
2023/10/11 06:39:33;;;;;;;49.85;37.97;;;14.80;99.90;;;;;;4806703;29;20042;-78
2023/10/11 06:42:14;;;;;;;42.75;35.85;;;14.80;99.90;;;;;;4802764;29;20046;-80
2023/10/11 06:44:57;;;;;;;56.92;39.28;;;14.90;99.90;;;;;;4809517;29;20050;-79
2023/10/11 06:47:24;;;;;;;48.25;36.70;;;14.90;99.90;;;;;;4807265;29;20046;-81
2023/10/11 06:49:54;;;;;;;47.55;36.30;;;15.00;99.90;;;;;;4815752;29;20047;-81
2023/10/11 06:52:30;;;;;;;46.40;37.45;;;15.00;99.90;;;;;;4809054;29;20045;-80
2023/10/11 06:57:45;;;;;;;48.35;38.13;;;15.10;99.90;;;;;;4812127;29;20061;-79
2023/10/11 07:00:21;;;;;;;53.42;38.65;;;15.10;99.90;;;;;;4809142;29;20050;-81
2023/10/11 07:02:48;;;;;;;45.47;36.72;;;15.20;99.90;;;;;;4801102;29;20057;-79
2023/10/11 07:05:20;;;;;;;47.50;35.78;;;15.20;99.90;;;;;;4800543;29;20080;-78
2023/10/11 07:07:52;;;;;;;47.17;36.78;;;15.30;99.90;;;;;;4809243;29;20042;-79
2023/10/11 07:10:32;;;;;;;50.28;36.25;;;15.40;99.90;;;;;;4808877;29;20043;-80
2023/10/11 07:13:12;;;;;;;47.80;36.05;;;15.30;99.90;;;;;;4812803;29;20508;-79
2023/10/11 07:15:43;;;;;;;48.58;36.35;;;15.40;99.90;;;;;;4814786;29;20045;-79
2023/10/11 07:18:25;;;;;;;49.28;38.00;;;15.40;99.90;;;;;;4816254;29;20072;-79
2023/10/11 07:21:09;;;;;;;50.03;37.00;;;15.50;99.90;;;;;;4808928;29;20486;-79
2023/10/11 07:23:35;;;;;;;;;;;15.50;99.90;;;;;;4818233;29;20078;-79
2023/10/11 07:28:50;;;;;;;47.85;35.53;;;15.60;99.90;;;;;;4808926;29;20050;-79
2023/10/11 07:31:21;;;;;;;50.70;39.53;;;15.60;99.90;;;;;;4805505;29;20081;-81
2023/10/11 07:33:50;;;;;;;50.25;37.40;;;15.60;99.90;;;;;;4791519;29;20401;-80
2023/10/11 07:36:19;;;;;;;51.30;38.00;;;15.70;99.90;;;;;;4793228;29;20428;-84
2023/10/11 07:38:54;;;;;;;49.97;37.17;;;15.70;99.90;;;;;;4793410;29;20051;-79
2023/10/11 07:41:27;;;;;;;51.92;39.50;;;15.80;99.90;;;;;;4820919;29;20099;-79
2023/10/11 07:43:55;;;;;;;;;;;15.80;99.90;;;;;;4822844;29;20094;-79
2023/10/11 07:46:21;;;;;;;44.80;36.78;;;15.80;99.90;;;;;;4809635;29;19921;-79
2023/10/11 07:48:46;;;;;;;52.92;39.75;;;15.90;99.90;;;;;;4807653;29;20053;-79
2023/10/11 07:51:15;;;;;;;52.72;40.63;;;15.90;99.90;;;;;;4805532;29;20045;-80
2023/10/11 07:53:43;;;;;;;52.10;37.78;;;16.00;99.90;;;;;;4811215;29;20053;-80
2023/10/11 07:56:20;;;;;;;58.72;39.05;;;16.00;99.90;;;;;;4826757;29;20053;-79
2023/10/11 07:58:46;;;;;;;52.63;38.95;;;16.10;99.90;;;;;;4813548;29;20114;-79
2023/10/11 08:01:25;;;;;;;52.72;38.65;;;16.20;99.90;;;;;;4808045;29;20506;-79
2023/10/11 08:03:53;;;;;;;54.13;41.20;;;16.20;99.90;;;;;;4793355;29;20046;-80
2023/10/11 08:06:24;;;;;;;57.15;40.58;;;16.20;99.90;;;;;;4814284;29;20090;-79
2023/10/11 08:08:59;;;;;;;54.60;39.42;;;16.20;99.90;;;;;;4812470;29;20042;-80
2023/10/11 08:11:37;;;;;;;56.60;38.42;;;16.20;99.90;;;;;;4808143;29;20490;-79
2023/10/11 08:14:13;;;;;;;50.65;37.85;;;16.20;99.90;;;;;;4794327;29;20047;-79
2023/10/11 08:16:40;;;;;;;49.97;38.22;;;16.20;99.90;;;;;;4814242;29;20498;-79
2023/10/11 08:19:06;;;;;;;52.60;38.28;;;16.20;99.90;;;;;;4807302;29;20573;-79
2023/10/11 08:21:32;;;;;;;54.05;38.08;;;16.20;99.90;;;;;;4807369;29;20088;-78
2023/10/11 08:23:57;;;;;;;56.38;36.97;;;16.30;99.90;;;;;;4807789;29;20494;-79
2023/10/11 08:26:42;;;;;;;46.05;36.25;;;16.30;99.90;;;;;;4791937;29;20493;-79
2023/10/11 08:29:51;;;;;;;51.35;37.28;;;16.30;99.90;;;;;;4791644;29;20517;-78
2023/10/11 08:32:51;;;;;;;51.83;38.47;;;16.40;99.90;;;;;;4810032;29;20054;-79
2023/10/11 08:35:46;;;;;;;45.67;35.85;;;16.40;99.90;;;;;;4808721;29;20090;-79
2023/10/11 08:38:31;;;;;;;52.97;39.33;;;16.50;99.90;;;;;;4798562;29;20123;-78
2023/10/11 08:41:00;;;;;;;51.17;37.88;;;16.50;99.90;;;;;;4814220;29;20506;-79
2023/10/11 08:43:26;;;;;;;53.60;38.15;;;16.50;99.90;;;;;;4789848;29;20053;-79
2023/10/11 08:46:05;;;;;;;49.75;37.15;;;16.50;99.90;;;;;;4816668;29;20038;-81
2023/10/11 08:48:38;;;;;;;53.03;36.78;;;16.50;99.90;;;;;;4799739;29;20042;-79
2023/10/11 08:51:10;;;;;;;59.88;42.10;;;16.50;99.90;;;;;;4807009;29;20103;-79
2023/10/11 08:53:44;;;;;;;63.63;44.03;;;16.60;99.90;;;;;;4787974;29;20498;-79
2023/10/11 08:56:14;;;;;;;48.38;37.40;;;16.60;99.90;;;;;;4809601;29;20459;-79
2023/10/11 08:58:41;;;;;;;55.03;38.88;;;16.60;99.90;;;;;;4803548;29;20562;-80
2023/10/11 09:01:07;;;;;;;52.15;37.78;;;16.60;99.90;;;;;;4803592;29;20409;-78
2023/10/11 09:03:39;;;;;;;45.92;36.53;;;16.70;99.90;;;;;;4805304;29;20058;-79
2023/10/11 09:06:18;;;;;;;46.37;37.13;;;16.60;99.90;;;;;;4808049;29;20410;-80
2023/10/11 09:08:47;;;;;;;51.42;36.80;;;16.70;99.90;;;;;;4784497;29;20353;-80
2023/10/11 09:11:28;;;;;;;47.33;37.25;;;16.70;99.90;;;;;;4806180;29;20117;-80
2023/10/11 09:14:08;;;;;;;54.17;38.30;;;16.60;99.90;;;;;;4806095;29;20133;-79
2023/10/11 09:16:37;;;;;;;50.30;36.55;;;16.70;99.90;;;;;;4806042;29;20042;-80
2023/10/11 09:19:06;;;;;;;48.00;36.65;;;16.70;99.90;;;;;;4809233;29;20046;-79
2023/10/11 09:21:35;;;;;;;47.35;35.63;;;16.70;99.90;;;;;;4792847;29;20466;-79
2023/10/11 09:24:03;;;;;;;51.90;35.70;;;16.70;99.90;;;;;;4806924;29;20136;-80
2023/10/11 09:26:37;;;;;;;47.05;37.00;;;16.70;99.90;;;;;;4805976;29;20394;-79
2023/10/11 09:29:04;;;;;;;44.55;35.63;;;16.80;99.90;;;;;;4804971;29;20042;-79
2023/10/11 09:31:32;;;;;;;52.05;34.67;;;16.80;99.90;;;;;;4814124;29;20050;-79
2023/10/11 09:34:04;;;;;;;44.20;32.90;;;16.80;99.90;;;;;;4807741;29;20046;-80
2023/10/11 09:36:30;;;;;;;42.22;33.42;;;16.80;99.90;;;;;;4806713;29;20042;-79
2023/10/11 09:38:57;;;;;;;45.83;33.50;;;16.90;99.90;;;;;;4806606;29;20050;-80
2023/10/11 09:41:40;;;;;;;44.47;33.25;;;16.90;99.90;;;;;;4813434;29;20246;-79
2023/10/11 09:44:06;;;;;;;;;;;16.90;99.90;;;;;;4807299;29;20080;-80
2023/10/11 09:46:34;;;;;;;44.45;31.35;;;16.90;99.90;;;;;;4806660;29;19928;-80
2023/10/11 09:49:03;;;;;;;45.92;31.65;;;16.90;99.90;;;;;;4802963;29;20047;-80
2023/10/11 09:51:31;;;;;;;37.65;29.15;;;16.90;99.90;;;;;;4811942;29;20134;-80
2023/10/11 09:54:07;;;;;;;40.50;27.83;;;16.90;99.90;;;;;;4811581;29;20130;-80
2023/10/11 09:57:00;;;;;;;37.58;26.60;;;16.90;99.90;;;;;;4806853;29;20122;-80
2023/10/11 09:59:48;;;;;;;33.10;25.90;;;17.00;99.90;;;;;;4805371;29;20054;-79
2023/10/11 10:02:21;;;;;;;35.13;25.35;;;17.00;99.90;;;;;;4798670;29;20093;-80
2023/10/11 10:04:49;;;;;;;38.92;26.30;;;17.00;99.90;;;;;;4804910;29;20127;-80
2023/10/11 10:07:25;;;;;;;38.85;26.15;;;16.90;99.90;;;;;;4805562;29;20043;-80
2023/10/11 10:10:01;;;;;;;38.00;28.50;;;17.00;99.90;;;;;;4792816;29;20448;-82
2023/10/11 10:12:32;;;;;;;44.80;30.38;;;17.00;99.90;;;;;;4808217;29;20121;-79
2023/10/11 10:15:03;;;;;;;38.42;27.10;;;17.20;99.90;;;;;;4788147;29;20050;-78
2023/10/11 10:17:29;;;;;;;37.42;26.05;;;17.30;99.90;;;;;;4806479;29;20054;-79
2023/10/11 10:20:00;;;;;;;32.35;25.65;;;17.40;99.90;;;;;;4810383;29;20046;-80
2023/10/11 10:22:32;;;;;;;29.05;21.80;;;17.60;99.90;;;;;;4816987;29;20060;-80
2023/10/11 10:25:21;;;;;;;26.80;19.53;;;17.70;99.90;;;;;;4813030;29;20069;-80
2023/10/11 10:27:46;;;;;;;22.63;16.13;;;17.90;99.90;;;;;;4805855;29;20555;-79
2023/10/11 10:30:21;;;;;;;21.05;14.32;;;18.00;99.90;;;;;;4788434;29;20043;-80
2023/10/11 10:33:18;;;;;;;18.20;11.15;;;18.10;99.90;;;;;;4799486;29;20046;-81
2023/10/11 10:35:44;;;;;;;18.40;10.63;;;18.20;99.90;;;;;;4809068;29;20046;-80
2023/10/11 10:38:10;;;;;;;17.52;10.98;;;18.20;99.90;;;;;;4809749;29;20042;-79
2023/10/11 10:40:42;;;;;;;15.13;9.65;;;18.20;99.90;;;;;;4816250;29;20049;-80
2023/10/11 10:43:20;;;;;;;15.18;10.07;;;18.20;99.90;;;;;;4814113;29;20050;-80
2023/10/11 10:45:50;;;;;;;13.23;9.13;;;18.30;99.90;;;;;;4824229;29;20096;-79
2023/10/11 10:48:16;;;;;;;15.20;9.13;;;18.40;99.90;;;;;;4797728;29;20170;-81
2023/10/11 10:50:52;;;;;;;12.70;8.20;;;18.50;99.90;;;;;;4800198;29;20461;-79
2023/10/11 10:53:19;;;;;;;13.20;8.70;;;18.60;99.90;;;;;;4813847;29;20042;-80
2023/10/11 10:55:45;;;;;;;13.65;9.25;;;18.80;99.90;;;;;;4807393;29;20042;-80
2023/10/11 10:58:22;;;;;;;12.70;8.55;;;18.80;99.90;;;;;;4808532;29;20065;-80
2023/10/11 11:00:54;;;;;;;12.65;7.88;;;18.90;99.90;;;;;;4822080;29;20046;-80
2023/10/11 11:03:21;;;;;;;12.83;7.50;;;19.10;99.90;;;;;;4795064;29;20034;-79
2023/10/11 11:06:01;;;;;;;12.75;7.50;;;19.30;99.90;;;;;;4814693;29;20038;-79
2023/10/11 11:08:37;;;;;;;13.75;8.00;;;19.40;99.90;;;;;;4816560;29;20097;-79
2023/10/11 11:11:19;;;;;;;11.05;7.75;;;19.60;99.90;;;;;;4812069;29;20042;-79
2023/10/11 11:13:49;;;;;;;13.43;8.38;;;19.80;99.90;;;;;;4817590;29;20053;-79
2023/10/11 11:16:29;;;;;;;16.33;8.70;;;20.00;99.90;;;;;;4814075;29;20042;-79
2023/10/11 11:19:00;;;;;;;11.45;8.13;;;20.10;99.90;;;;;;4815630;29;20078;-79
2023/10/11 11:21:30;;;;;;;10.88;8.02;;;20.10;99.90;;;;;;4802347;29;20042;-79
2023/10/11 11:24:14;;;;;;;12.52;7.65;;;20.10;99.90;;;;;;4802353;29;20125;-80
2023/10/11 11:26:40;;;;;;;11.02;7.50;;;20.20;99.90;;;;;;4812255;29;20113;-79
2023/10/11 11:29:09;;;;;;;12.80;8.30;;;20.30;99.90;;;;;;4806397;29;20591;-79
2023/10/11 11:31:52;;;;;;;12.32;7.68;;;20.20;99.90;;;;;;4793552;29;20038;-79
2023/10/11 11:34:27;;;;;;;12.10;7.15;;;20.10;99.90;;;;;;4809116;29;20047;-80
2023/10/11 11:37:06;;;;;;;9.93;6.80;;;20.00;99.90;;;;;;4814856;29;20050;-80
2023/10/11 11:39:39;;;;;;;10.73;6.68;;;19.80;99.90;;;;;;4813698;29;20050;-79
2023/10/11 11:42:19;;;;;;;12.85;7.38;;;19.70;99.90;;;;;;4808012;29;20054;-79
2023/10/11 11:44:46;;;;;;;10.55;7.13;;;19.70;99.90;;;;;;4796670;29;20525;-79
2023/10/11 11:47:13;;;;;;;10.77;7.00;;;19.60;99.90;;;;;;4823730;29;20038;-79
2023/10/11 11:49:38;;;;;;;12.90;8.07;;;19.50;99.90;;;;;;4815849;29;20038;-79
2023/10/11 11:52:05;;;;;;;11.63;7.97;;;19.50;99.90;;;;;;4806039;29;20047;-79
2023/10/11 11:54:30;;;;;;;11.80;8.32;;;19.60;99.90;;;;;;4807291;29;20073;-79
2023/10/11 11:56:57;;;;;;;12.52;8.00;;;19.60;99.90;;;;;;4810885;29;20057;-79
2023/10/11 11:59:25;;;;;;;11.85;7.60;;;19.70;99.90;;;;;;4809914;29;20042;-79
2023/10/11 12:01:59;;;;;;;14.25;8.23;;;19.70;99.90;;;;;;4815324;29;20077;-80
2023/10/11 12:04:29;;;;;;;13.27;8.23;;;19.80;99.90;;;;;;4822696;29;20061;-79
2023/10/11 12:07:04;;;;;;;13.82;7.68;;;19.90;99.90;;;;;;4793639;29;20451;-79
2023/10/11 12:09:34;;;;;;;15.90;8.30;;;19.90;99.90;;;;;;4818487;29;20038;-79
2023/10/11 12:12:05;;;;;;;11.20;7.38;;;19.90;99.90;;;;;;4816503;29;20052;-79
2023/10/11 12:14:37;;;;;;;14.10;8.45;;;20.00;99.90;;;;;;4814139;29;20098;-80
2023/10/11 12:17:09;;;;;;;13.13;7.85;;;20.00;99.90;;;;;;4805829;29;20042;-80
2023/10/11 12:19:36;;;;;;;11.50;7.35;;;20.20;99.90;;;;;;4796681;29;20049;-79
2023/10/11 12:22:01;;;;;;;9.75;6.38;;;20.30;99.90;;;;;;4805868;29;20490;-79
2023/10/11 12:24:27;;;;;;;10.27;6.80;;;20.50;99.90;;;;;;4822977;29;20082;-80
2023/10/11 12:26:57;;;;;;;11.38;6.57;;;20.50;99.90;;;;;;4792413;29;20490;-79
2023/10/11 12:29:24;;;;;;;11.77;6.97;;;20.50;99.90;;;;;;4806121;29;20409;-78
2023/10/11 12:31:49;;;;;;;12.48;6.97;;;20.70;99.90;;;;;;4807600;29;20159;-78
2023/10/11 12:34:16;;;;;;;11.50;6.95;;;20.90;99.90;;;;;;4813535;29;20137;-78
2023/10/11 12:36:42;;;;;;;14.05;6.75;;;21.00;99.90;;;;;;4810258;29;20506;-78
2023/10/11 12:39:21;;;;;;;11.45;6.45;;;21.10;99.90;;;;;;4807471;29;20046;-78
2023/10/11 12:41:49;;;;;;;11.35;6.50;;;21.10;99.90;;;;;;4802328;29;20077;-79
2023/10/11 12:44:15;;;;;;;9.02;5.75;;;21.00;99.90;;;;;;4799801;29;20703;-78
2023/10/11 12:46:41;;;;;;;11.35;5.50;;;20.90;99.90;;;;;;4815192;29;20043;-83
2023/10/11 12:49:13;;;;;;;10.05;5.30;;;20.80;99.90;;;;;;4791960;29;20740;-81
2023/10/11 12:51:43;;;;;;;10.18;5.70;;;20.70;99.90;;;;;;4807039;29;20410;-80
2023/10/11 12:54:10;;;;;;;8.93;5.28;;;20.70;99.90;;;;;;4808939;29;20133;-83
2023/10/11 12:56:39;;;;;;;7.93;4.47;;;20.60;99.90;;;;;;4830073;29;20463;-81
2023/10/11 12:59:22;;;;;;;8.85;5.05;;;20.60;99.90;;;;;;4792184;29;20095;-82
2023/10/11 13:02:33;;;;;;;9.35;4.90;;;20.60;99.90;;;;;;4804944;29;20100;-80
2023/10/11 13:05:19;;;;;;;8.70;4.72;;;20.60;99.90;;;;;;4803061;29;20055;-83
2023/10/11 13:08:07;;;;;;;9.40;4.78;;;20.60;99.90;;;;;;4793044;29;20050;-80
2023/10/11 13:11:22;;;;;;;;;;;;;;;;;;;;;
2023/10/11 13:17:33;;;;;;;13.40;5.57;;;20.40;99.90;;;;;;4809604;29;20093;-82
2023/10/11 13:20:20;;;;;;;;;;;20.30;99.90;;;;;;4806909;29;20502;-81
2023/10/11 13:27:22;;;;;;;14.00;9.50;;;20.30;99.90;;;;;;4760013;29;20051;-80
2023/10/11 13:30:16;;;;;;;13.35;9.15;;;20.20;99.90;;;;;;4772871;29;20051;-80
2023/10/11 13:33:12;;;;;;;15.57;9.60;;;20.10;99.90;;;;;;4770909;29;20088;-80
2023/10/11 13:35:49;;;;;;;13.32;9.20;;;20.10;99.90;;;;;;4801812;29;20065;-81
2023/10/11 13:38:18;;;;;;;15.45;9.70;;;20.10;99.90;;;;;;4808499;29;20085;-80
2023/10/11 13:40:45;;;;;;;17.35;9.65;;;20.20;99.90;;;;;;4786154;29;20099;-80
2023/10/11 13:43:12;;;;;;;13.40;9.05;;;20.40;99.90;;;;;;4809506;29;20042;-80
2023/10/11 13:45:40;;;;;;;13.00;9.70;;;20.50;99.90;;;;;;4814418;29;20084;-80
2023/10/11 13:48:11;;;;;;;13.70;8.85;;;20.40;99.90;;;;;;4808270;29;20034;-80
2023/10/11 13:50:38;;;;;;;13.93;9.00;;;20.30;99.90;;;;;;4824449;29;20037;-80
2023/10/11 13:53:04;;;;;;;12.65;8.57;;;20.10;99.90;;;;;;4822059;29;20046;-81
2023/10/11 13:55:39;;;;;;;13.65;8.07;;;20.10;99.90;;;;;;4815000;29;20053;-81